Time;durP1;ratioP1;P1;durP2;ratioP2;P2;SDS_P1;SDS_P2;PMS_P1;PMS_P2;Temp;Humidity;BMP_temperature;BMP_pressure;BME280_temperature;BME280_humidity;BME280_pressure;Samples;Min_cycle;Max_cycle;Signal;HPM_P1;HPM_P2
2021/11/13 00:00:12;;;;;;;17.85;4.78;;;13.10;84.00;;;;;;5036670;28;20025;-84
2021/11/13 00:02:40;;;;;;;23.13;5.07;;;13.10;83.90;;;;;;5053980;28;20104;-84
2021/11/13 00:05:07;;;;;;;22.63;4.93;;;13.10;84.30;;;;;;5056624;28;20115;-84
2021/11/13 00:07:33;;;;;;;20.70;5.47;;;13.10;84.10;;;;;;5048233;28;20083;-84
2021/11/13 00:09:58;;;;;;;22.13;6.00;;;13.10;84.20;;;;;;5036536;28;20120;-84
2021/11/13 00:12:24;;;;;;;19.58;5.53;;;13.20;84.30;;;;;;5036540;28;20036;-83
2021/11/13 00:14:50;;;;;;;27.38;7.47;;;13.20;84.10;;;;;;5036564;28;20108;-84
2021/11/13 00:17:16;;;;;;;24.42;6.63;;;13.20;84.20;;;;;;5035910;28;20563;-83
2021/11/13 00:19:45;;;;;;;23.17;9.02;;;13.20;84.10;;;;;;5036356;28;20029;-84
2021/11/13 00:22:12;;;;;;;34.92;8.85;;;13.10;83.90;;;;;;5036507;28;20022;-83
2021/11/13 00:24:38;;;;;;;30.23;7.57;;;13.20;84.00;;;;;;5036188;28;20045;-84
2021/11/13 00:27:08;;;;;;;31.70;7.72;;;13.20;84.30;;;;;;5034792;28;20025;-83
2021/11/13 00:29:34;;;;;;;25.88;7.60;;;13.10;84.10;;;;;;5036209;28;20025;-84
2021/11/13 00:32:00;;;;;;;42.42;9.75;;;13.10;84.10;;;;;;5048225;28;20523;-84
2021/11/13 00:34:26;;;;;;;29.75;7.07;;;13.20;84.10;;;;;;5056023;28;20032;-84
2021/11/13 00:36:54;;;;;;;22.02;4.88;;;13.20;84.10;;;;;;5055897;28;20100;-84
2021/11/13 00:39:21;;;;;;;22.15;3.85;;;13.10;84.00;;;;;;5043904;28;20036;-84
2021/11/13 00:41:47;;;;;;;22.85;4.70;;;13.10;84.30;;;;;;5035629;28;20021;-84
2021/11/13 00:44:13;;;;;;;25.67;4.45;;;13.00;84.00;;;;;;5035999;28;20128;-84
2021/11/13 00:46:40;;;;;;;24.02;4.90;;;13.00;84.10;;;;;;5035649;28;20092;-84
2021/11/13 00:49:06;;;;;;;17.17;4.32;;;13.00;84.10;;;;;;5046357;28;20112;-84
2021/11/13 00:51:33;;;;;;;23.25;4.75;;;13.00;84.30;;;;;;5035717;28;20036;-84
2021/11/13 00:53:59;;;;;;;18.20;5.13;;;13.00;84.30;;;;;;5038097;28;20045;-84
2021/11/13 00:56:24;;;;;;;14.98;4.07;;;13.00;84.30;;;;;;5034088;28;20025;-84
2021/11/13 00:58:50;;;;;;;13.85;3.33;;;13.00;83.90;;;;;;5033666;28;20033;-83
2021/11/13 01:01:16;;;;;;;27.70;4.63;;;13.00;84.10;;;;;;5038213;28;20365;-84
2021/11/13 01:03:43;;;;;;;24.50;4.57;;;12.90;84.20;;;;;;5035651;28;20029;-84
2021/11/13 01:06:09;;;;;;;15.50;3.65;;;12.90;84.40;;;;;;5037956;28;20167;-84
2021/11/13 01:08:34;;;;;;;21.48;4.47;;;12.90;84.50;;;;;;5075411;28;20069;-84
2021/11/13 01:11:03;;;;;;;21.65;4.80;;;12.90;84.50;;;;;;5069972;28;20033;-84
2021/11/13 01:13:29;;;;;;;34.05;4.10;;;12.90;84.40;;;;;;5035868;28;20025;-83
2021/11/13 01:15:55;;;;;;;16.13;4.03;;;12.90;84.50;;;;;;5034920;28;20030;-84
2021/11/13 01:18:22;;;;;;;17.83;4.00;;;12.90;84.40;;;;;;5035547;28;20081;-84
2021/11/13 01:20:48;;;;;;;13.48;2.97;;;12.80;84.30;;;;;;5034140;28;20070;-83
2021/11/13 01:23:14;;;;;;;18.42;3.25;;;12.80;84.40;;;;;;5035355;28;20519;-84
2021/11/13 01:25:40;;;;;;;12.18;3.92;;;12.80;84.50;;;;;;5035296;28;20033;-84
2021/11/13 01:28:08;;;;;;;16.15;3.75;;;12.70;84.40;;;;;;5035286;28;20022;-84
2021/11/13 01:30:33;;;;;;;16.92;3.90;;;12.70;84.40;;;;;;5034975;28;20038;-84
2021/11/13 01:32:59;;;;;;;22.40;4.13;;;12.60;84.40;;;;;;5034946;28;20082;-84
2021/11/13 01:35:26;;;;;;;15.18;3.70;;;12.50;84.50;;;;;;5035367;28;20045;-84
2021/11/13 01:37:52;;;;;;;18.00;3.45;;;12.50;84.80;;;;;;5035149;28;20132;-84
2021/11/13 01:40:21;;;;;;;22.65;3.88;;;12.50;84.80;;;;;;5035042;28;20470;-84
2021/11/13 01:42:48;;;;;;;19.45;4.35;;;12.40;84.90;;;;;;5033639;28;20407;-84
2021/11/13 01:45:17;;;;;;;19.33;3.83;;;12.40;85.00;;;;;;5035060;28;20033;-83
2021/11/13 01:47:44;;;;;;;22.20;3.95;;;12.30;84.70;;;;;;5035047;28;20087;-83
2021/11/13 01:50:13;;;;;;;18.67;4.38;;;12.30;84.90;;;;;;5034942;28;20028;-84
2021/11/13 01:52:39;;;;;;;19.35;3.80;;;12.30;84.80;;;;;;5034430;28;20161;-84
2021/11/13 01:55:05;;;;;;;23.08;4.10;;;12.30;84.80;;;;;;5051138;28;20131;-83
2021/11/13 01:57:43;;;;;;;17.23;3.92;;;12.20;85.10;;;;;;5054947;28;20021;-83
2021/11/13 02:00:11;;;;;;;17.15;3.65;;;12.20;85.10;;;;;;5052106;28;20021;-83
2021/11/13 02:02:37;;;;;;;23.58;4.60;;;12.20;85.10;;;;;;5034855;28;20449;-83
2021/11/13 02:05:04;;;;;;;19.15;4.40;;;12.10;84.90;;;;;;5034912;28;20110;-83
2021/11/13 02:07:30;;;;;;;15.45;3.85;;;12.10;85.40;;;;;;5059449;28;20024;-83
2021/11/13 02:09:56;;;;;;;20.70;3.88;;;12.10;85.10;;;;;;5072297;28;20039;-84
2021/11/13 02:12:22;;;;;;;18.48;4.13;;;12.10;85.20;;;;;;5037098;28;20029;-84
2021/11/13 02:14:48;;;;;;;19.73;4.95;;;12.10;85.30;;;;;;5038944;28;20050;-84
2021/11/13 02:17:14;;;;;;;25.77;4.45;;;12.20;85.00;;;;;;5038655;28;20028;-83
2021/11/13 02:19:39;;;;;;;19.15;4.57;;;12.10;85.00;;;;;;5038623;28;20052;-83
2021/11/13 02:22:05;;;;;;;22.90;4.03;;;12.10;85.10;;;;;;5038624;28;20079;-83
2021/11/13 02:24:31;;;;;;;21.45;4.30;;;12.10;85.00;;;;;;5042823;28;20171;-83
2021/11/13 02:26:57;;;;;;;23.27;4.63;;;12.00;85.10;;;;;;5058581;28;20024;-84
2021/11/13 02:29:23;;;;;;;23.95;4.03;;;12.00;85.20;;;;;;5042222;28;20037;-84
2021/11/13 02:31:49;;;;;;;21.13;3.78;;;12.00;85.10;;;;;;5038312;28;20025;-84
2021/11/13 02:34:15;;;;;;;27.25;5.05;;;12.00;85.30;;;;;;5038160;28;20033;-84
2021/11/13 02:36:46;;;;;;;26.20;4.75;;;11.90;85.20;;;;;;5038548;28;20754;-83
2021/11/13 02:39:13;;;;;;;21.13;4.60;;;11.90;85.40;;;;;;5053735;28;20057;-84
2021/11/13 02:41:42;;;;;;;20.33;4.25;;;11.90;85.40;;;;;;5038210;28;20049;-83
2021/11/13 02:44:08;;;;;;;15.40;4.25;;;11.90;85.20;;;;;;5058075;28;20024;-84
2021/11/13 02:46:34;;;;;;;24.27;3.97;;;11.90;85.30;;;;;;5056405;28;20466;-83
2021/11/13 02:49:03;;;;;;;23.35;3.70;;;11.80;85.30;;;;;;5056647;28;20027;-83
2021/11/13 02:51:28;;;;;;;29.88;5.05;;;11.80;85.30;;;;;;5038166;28;20037;-83
2021/11/13 02:53:54;;;;;;;14.73;4.10;;;11.90;85.30;;;;;;5046763;28;20045;-83
2021/11/13 02:56:20;;;;;;;24.10;4.70;;;11.90;85.20;;;;;;5058256;28;20124;-83
2021/11/13 02:58:46;;;;;;;18.55;3.85;;;11.90;85.20;;;;;;5038660;28;20037;-84
2021/11/13 03:01:15;;;;;;;30.92;4.55;;;11.90;85.10;;;;;;5037934;28;20018;-83
2021/11/13 03:03:41;;;;;;;19.48;4.22;;;11.90;85.20;;;;;;5037584;28;20036;-83
2021/11/13 03:06:12;;;;;;;17.85;3.92;;;11.80;85.30;;;;;;5039539;28;20018;-83
2021/11/13 03:08:40;;;;;;;19.80;4.15;;;11.90;85.20;;;;;;5051581;28;20655;-83
2021/11/13 03:11:11;;;;;;;19.35;3.78;;;11.80;85.10;;;;;;5037786;28;20585;-83
2021/11/13 03:13:41;;;;;;;19.67;3.55;;;11.80;85.20;;;;;;5036273;28;20053;-83
2021/11/13 03:16:14;;;;;;;18.25;3.83;;;11.80;85.50;;;;;;5037221;28;20026;-84
2021/11/13 03:18:39;;;;;;;15.90;4.30;;;11.70;85.40;;;;;;5037596;28;20026;-83
2021/11/13 03:21:06;;;;;;;22.67;4.18;;;11.60;85.60;;;;;;5036468;28;20452;-83
2021/11/13 03:23:38;;;;;;;15.93;3.45;;;11.70;85.80;;;;;;5052928;28;20256;-84
2021/11/13 03:26:07;;;;;;;18.83;4.07;;;11.60;85.60;;;;;;5037703;28;20032;-83
2021/11/13 03:28:37;;;;;;;18.67;4.32;;;11.70;85.90;;;;;;5037582;28;20048;-84
2021/11/13 03:31:04;;;;;;;17.75;4.50;;;11.70;85.70;;;;;;5036966;28;20040;-84
2021/11/13 03:33:38;;;;;;;25.85;4.25;;;11.70;85.80;;;;;;5047011;28;20029;-83
2021/11/13 03:36:06;;;;;;;19.65;3.55;;;11.80;85.70;;;;;;5055852;28;20032;-84
2021/11/13 03:38:33;;;;;;;16.90;3.42;;;11.80;85.60;;;;;;5057138;28;20049;-83
2021/11/13 03:40:58;;;;;;;18.77;3.30;;;11.80;85.50;;;;;;5056983;28;20021;-83
2021/11/13 03:43:25;;;;;;;23.92;4.05;;;11.70;85.40;;;;;;5039896;28;20506;-84
2021/11/13 03:45:51;;;;;;;22.23;3.72;;;11.70;85.30;;;;;;5037271;28;20038;-84
2021/11/13 03:48:17;;;;;;;15.75;3.42;;;11.70;85.50;;;;;;5037574;28;20044;-84
2021/11/13 03:50:46;;;;;;;19.08;3.63;;;11.70;85.70;;;;;;5037211;28;20041;-84
2021/11/13 03:53:12;;;;;;;18.42;3.10;;;11.80;85.50;;;;;;5037080;28;20101;-84
2021/11/13 03:55:38;;;;;;;14.27;3.13;;;11.80;85.60;;;;;;5037221;28;20033;-84
2021/11/13 03:58:05;;;;;;;12.10;2.88;;;11.80;85.40;;;;;;5037003;28;20124;-84
2021/11/13 04:00:31;;;;;;;21.30;3.92;;;11.80;85.30;;;;;;5036506;28;20017;-84
2021/11/13 04:02:58;;;;;;;13.98;3.42;;;11.80;85.40;;;;;;5036681;28;20039;-84
2021/11/13 04:05:24;;;;;;;17.80;3.63;;;11.90;85.40;;;;;;5037124;28;20029;-83
2021/11/13 04:07:50;;;;;;;10.73;2.72;;;11.90;85.40;;;;;;5066932;28;20028;-84
2021/11/13 04:10:16;;;;;;;13.38;2.50;;;11.90;85.20;;;;;;5066380;28;20083;-84
2021/11/13 04:12:43;;;;;;;13.88;2.75;;;11.90;85.30;;;;;;5036579;28;20025;-84
2021/11/13 04:15:11;;;;;;;15.07;3.22;;;12.00;85.30;;;;;;5036640;28;20018;-84
2021/11/13 04:17:37;;;;;;;7.80;2.10;;;12.00;85.40;;;;;;5036475;28;20068;-83
2021/11/13 04:20:05;;;;;;;14.25;3.15;;;11.90;85.40;;;;;;5036263;28;20030;-83
2021/11/13 04:22:31;;;;;;;14.73;2.85;;;11.90;85.60;;;;;;5036452;28;20029;-83
2021/11/13 04:24:58;;;;;;;11.57;3.00;;;11.90;85.50;;;;;;5036424;28;20049;-83
2021/11/13 04:27:24;;;;;;;10.70;2.55;;;12.00;85.40;;;;;;5036215;28;20030;-84
2021/11/13 04:29:50;;;;;;;11.00;2.85;;;12.00;85.40;;;;;;5041242;28;20041;-83
2021/11/13 04:32:16;;;;;;;17.35;3.95;;;12.00;85.40;;;;;;5034267;28;20029;-83
2021/11/13 04:35:03;;;;;;;17.10;2.30;;;12.00;85.30;;;;;;5054013;28;20033;-84
2021/11/13 04:37:30;;;;;;;11.20;2.50;;;12.00;85.30;;;;;;5055840;28;20056;-84
2021/11/13 04:39:56;;;;;;;10.48;2.55;;;12.00;85.40;;;;;;5051137;28;20022;-84
2021/11/13 04:42:22;;;;;;;9.45;2.15;;;12.00;85.50;;;;;;5034649;28;20026;-84
2021/11/13 04:44:50;;;;;;;14.07;2.40;;;12.00;85.40;;;;;;5036069;28;20051;-83
2021/11/13 04:47:31;;;;;;;10.55;2.17;;;12.00;85.40;;;;;;5035634;28;20034;-83
2021/11/13 04:49:57;;;;;;;14.30;2.60;;;12.00;85.50;;;;;;5036045;28;20075;-84
2021/11/13 04:52:22;;;;;;;15.25;2.58;;;12.00;85.70;;;;;;5034551;28;20144;-83
2021/11/13 04:54:48;;;;;;;11.77;3.00;;;12.00;85.80;;;;;;5035615;28;20033;-84
2021/11/13 04:57:14;;;;;;;7.32;2.28;;;12.00;85.70;;;;;;5035779;28;20035;-84
2021/11/13 04:59:39;;;;;;;11.98;2.03;;;12.10;85.60;;;;;;5045097;28;20048;-84
2021/11/13 05:02:05;;;;;;;13.10;2.47;;;12.10;85.60;;;;;;5055569;28;20051;-84
2021/11/13 05:04:54;;;;;;;6.47;1.90;;;12.10;85.60;;;;;;5053958;28;20025;-83
2021/11/13 05:07:21;;;;;;;7.97;1.83;;;12.00;85.60;;;;;;5057500;28;20028;-84
2021/11/13 05:09:46;;;;;;;8.23;1.92;;;12.10;85.60;;;;;;5074177;28;20044;-84
2021/11/13 05:12:12;;;;;;;12.68;1.98;;;12.10;85.50;;;;;;5058396;28;20052;-84
2021/11/13 05:14:38;;;;;;;16.05;2.63;;;12.10;85.60;;;;;;5035440;28;20025;-84
2021/11/13 05:17:03;;;;;;;13.18;2.00;;;12.10;85.70;;;;;;5035377;28;20022;-83
2021/11/13 05:19:29;;;;;;;12.65;2.38;;;12.10;85.70;;;;;;5035598;28;20031;-84
2021/11/13 05:21:55;;;;;;;5.68;1.85;;;12.20;85.70;;;;;;5035449;28;20056;-84
2021/11/13 05:24:21;;;;;;;8.50;1.60;;;12.20;85.80;;;;;;5035429;28;20026;-84
2021/11/13 05:26:46;;;;;;;9.63;2.05;;;12.10;86.00;;;;;;5035189;28;20651;-84
2021/11/13 05:29:12;;;;;;;6.43;1.90;;;12.10;86.10;;;;;;5035306;28;20029;-83
2021/11/13 05:31:38;;;;;;;8.20;1.63;;;12.20;86.00;;;;;;5034640;28;20065;-84
2021/11/13 05:34:03;;;;;;;12.38;2.13;;;12.10;86.10;;;;;;5035266;28;20026;-84
2021/11/13 05:36:29;;;;;;;5.00;1.55;;;12.20;86.00;;;;;;5035223;28;20087;-84
2021/11/13 05:38:55;;;;;;;8.95;1.65;;;12.20;85.90;;;;;;5035124;28;20025;-84
2021/11/13 05:41:20;;;;;;;10.43;1.67;;;12.20;86.00;;;;;;5035104;28;20041;-84
2021/11/13 05:43:46;;;;;;;8.50;1.83;;;12.20;86.00;;;;;;5037849;28;20025;-83
2021/11/13 05:46:12;;;;;;;8.10;1.80;;;12.30;85.90;;;;;;5034776;28;20353;-84
2021/11/13 05:48:37;;;;;;;3.17;1.10;;;12.30;85.80;;;;;;5034985;28;20030;-83
2021/11/13 05:51:03;;;;;;;11.15;2.10;;;12.30;85.80;;;;;;5035229;28;20589;-83
2021/11/13 05:53:29;;;;;;;14.20;1.70;;;12.30;85.80;;;;;;5034696;28;20091;-84
2021/11/13 05:55:56;;;;;;;5.70;1.63;;;12.30;85.80;;;;;;5034779;28;20056;-83
2021/11/13 05:58:21;;;;;;;9.52;1.65;;;12.30;85.80;;;;;;5054487;28;20403;-84
2021/11/13 06:00:47;;;;;;;5.38;1.90;;;12.30;85.80;;;;;;5054363;28;20608;-84
2021/11/13 06:03:13;;;;;;;8.50;1.80;;;12.30;85.90;;;;;;5054786;28;20078;-84
2021/11/13 06:05:40;;;;;;;5.50;1.48;;;12.30;85.90;;;;;;5039388;28;20034;-84
2021/11/13 06:08:06;;;;;;;2.17;1.33;;;12.30;86.20;;;;;;5069157;28;20036;-83
2021/11/13 06:10:31;;;;;;;6.10;1.50;;;12.30;86.40;;;;;;5061215;28;20022;-83
2021/11/13 06:13:00;;;;;;;6.85;1.45;;;12.30;86.60;;;;;;5034740;28;20384;-83
2021/11/13 06:15:26;;;;;;;10.77;1.83;;;12.30;86.40;;;;;;5033381;28;20030;-84
2021/11/13 06:17:51;;;;;;;7.05;1.67;;;12.30;86.30;;;;;;5034508;28;20029;-83
2021/11/13 06:20:17;;;;;;;5.03;1.80;;;12.40;86.20;;;;;;5034760;28;20044;-83
2021/11/13 06:22:43;;;;;;;7.07;2.08;;;12.40;86.20;;;;;;5034553;28;20028;-84
2021/11/13 06:25:10;;;;;;;2.90;1.52;;;12.40;86.20;;;;;;5034534;28;20042;-83
2021/11/13 06:27:37;;;;;;;5.18;1.70;;;12.40;86.20;;;;;;5034687;28;20025;-84
2021/11/13 06:30:09;;;;;;;4.60;1.40;;;12.50;86.20;;;;;;5034410;28;20460;-84
2021/11/13 06:32:34;;;;;;;4.32;1.80;;;12.40;86.20;;;;;;5035367;28;20074;-84
2021/11/13 06:35:01;;;;;;;8.82;1.83;;;12.40;86.40;;;;;;5043328;28;20030;-84
2021/11/13 06:37:27;;;;;;;6.07;2.75;;;12.40;86.60;;;;;;5033382;28;20047;-89
2021/11/13 06:39:53;;;;;;;4.30;1.70;;;12.30;86.60;;;;;;5034923;28;20586;-83
2021/11/13 06:42:19;;;;;;;4.80;1.50;;;12.30;86.70;;;;;;5037599;28;20121;-84
2021/11/13 06:44:45;;;;;;;3.70;1.85;;;12.30;87.00;;;;;;5054011;28;20040;-93
2021/11/13 06:47:10;;;;;;;6.10;1.95;;;12.30;86.90;;;;;;5055323;28;20112;-90
2021/11/13 06:49:36;;;;;;;4.13;1.80;;;12.40;86.90;;;;;;5055583;28;20124;-85
2021/11/13 06:52:02;;;;;;;10.07;2.15;;;12.40;86.90;;;;;;5048240;28;20057;-87
2021/11/13 06:54:28;;;;;;;7.28;1.92;;;12.50;86.80;;;;;;5034438;28;20072;-88
2021/11/13 06:56:54;;;;;;;5.68;2.63;;;12.40;86.80;;;;;;5036750;28;20018;-88
2021/11/13 06:59:20;;;;;;;6.55;2.03;;;12.50;86.90;;;;;;5040627;28;20396;-82
2021/11/13 07:01:46;;;;;;;5.88;2.58;;;12.50;86.70;;;;;;5039207;28;20048;-86
2021/11/13 07:04:15;;;;;;;6.32;2.20;;;12.50;86.50;;;;;;5038366;28;20041;-79
2021/11/13 07:06:40;;;;;;;2.40;1.67;;;12.60;86.40;;;;;;5050424;28;20542;-85
2021/11/13 07:09:06;;;;;;;3.70;1.90;;;12.60;86.40;;;;;;5037735;28;20506;-81
2021/11/13 07:11:32;;;;;;;3.78;1.80;;;12.60;86.50;;;;;;5036443;28;20029;-86
2021/11/13 07:13:58;;;;;;;5.05;1.80;;;12.60;86.50;;;;;;5037174;28;20029;-78
2021/11/13 07:16:23;;;;;;;4.30;1.83;;;12.60;86.40;;;;;;5044797;28;20102;-76
2021/11/13 07:18:49;;;;;;;3.92;2.10;;;12.70;86.50;;;;;;5054272;28;20029;-78
2021/11/13 07:21:15;;;;;;;5.78;1.90;;;12.60;86.40;;;;;;5058274;28;20024;-78
2021/11/13 07:23:41;;;;;;;8.63;2.70;;;12.60;86.50;;;;;;5056469;28;20100;-77
2021/11/13 07:26:07;;;;;;;5.63;1.75;;;12.70;86.40;;;;;;5052322;28;20479;-78
2021/11/13 07:31:01;;;;;;;5.57;1.88;;;12.70;86.60;;;;;;5038074;28;20021;-77
2021/11/13 07:33:27;;;;;;;5.80;2.38;;;12.60;86.60;;;;;;5046933;28;20029;-77
2021/11/13 07:35:53;;;;;;;4.70;2.10;;;12.60;86.70;;;;;;5051505;28;20129;-77
2021/11/13 07:38:19;;;;;;;4.13;2.20;;;12.70;86.70;;;;;;5046971;28;20245;-77
2021/11/13 07:40:46;;;;;;;3.60;2.35;;;12.70;86.70;;;;;;5045196;28;20068;-77
2021/11/13 07:43:11;;;;;;;4.15;2.00;;;12.70;86.60;;;;;;5044978;28;20579;-77
2021/11/13 07:45:38;;;;;;;3.40;1.67;;;12.70;86.80;;;;;;5046031;28;20460;-78
2021/11/13 07:48:07;;;;;;;6.00;1.98;;;12.70;86.70;;;;;;5045650;28;20025;-77
2021/11/13 07:50:35;;;;;;;2.28;1.45;;;12.80;86.70;;;;;;5046204;28;20053;-77
2021/11/13 07:53:04;;;;;;;3.42;1.52;;;12.80;86.60;;;;;;5045103;28;20056;-78
2021/11/13 07:55:30;;;;;;;3.05;1.95;;;12.80;86.50;;;;;;5041619;28;20025;-76
2021/11/13 07:57:56;;;;;;;4.53;2.10;;;12.80;86.50;;;;;;5041911;28;20509;-76
2021/11/13 08:00:22;;;;;;;3.78;1.70;;;12.80;86.50;;;;;;5037175;28;20068;-77
2021/11/13 08:02:48;;;;;;;4.25;2.20;;;12.80;86.50;;;;;;5051918;28;20511;-76
2021/11/13 08:05:15;;;;;;;5.93;1.63;;;12.80;86.50;;;;;;5046606;28;20543;-78
2021/11/13 08:07:42;;;;;;;3.65;2.05;;;12.80;86.40;;;;;;5045836;28;20032;-77
2021/11/13 08:10:09;;;;;;;3.92;1.83;;;12.90;86.40;;;;;;5047679;28;20036;-76
2021/11/13 08:12:35;;;;;;;5.28;1.88;;;12.90;86.40;;;;;;5042474;28;20035;-76
2021/11/13 08:15:01;;;;;;;6.55;2.30;;;12.90;86.40;;;;;;5044795;28;20048;-77
2021/11/13 08:17:27;;;;;;;6.18;2.22;;;12.90;86.30;;;;;;5040526;28;20487;-77
2021/11/13 08:19:52;;;;;;;5.85;2.35;;;13.00;86.30;;;;;;5044756;28;20060;-76
2021/11/13 08:22:18;;;;;;;9.32;2.75;;;13.00;86.30;;;;;;5045247;28;20096;-77
2021/11/13 08:24:44;;;;;;;9.30;2.85;;;13.00;86.30;;;;;;5041586;28;20033;-76
2021/11/13 08:27:10;;;;;;;6.57;3.17;;;13.00;86.20;;;;;;5046672;28;20029;-76
2021/11/13 08:29:36;;;;;;;7.22;2.42;;;13.00;86.20;;;;;;5045123;28;20702;-76
2021/11/13 08:32:04;;;;;;;5.55;3.10;;;13.20;86.10;;;;;;5035307;28;20133;-77
2021/11/13 08:34:30;;;;;;;6.40;2.67;;;13.10;86.10;;;;;;5035462;28;20022;-76
2021/11/13 08:36:55;;;;;;;7.63;2.65;;;13.20;85.90;;;;;;5033889;28;20033;-76
2021/11/13 08:39:22;;;;;;;5.72;2.22;;;13.20;85.90;;;;;;5034172;28;20104;-76
2021/11/13 08:41:48;;;;;;;4.78;2.50;;;13.30;85.70;;;;;;5040359;28;20187;-77
2021/11/13 08:44:14;;;;;;;6.18;3.13;;;13.30;85.70;;;;;;5040099;28;20051;-78
2021/11/13 08:50:18;;;;;;;4.45;2.42;;;13.30;85.70;;;;;;5069622;28;20410;-79
2021/11/13 08:52:48;;;;;;;5.35;2.28;;;13.30;85.90;;;;;;5071035;28;20507;-78
2021/11/13 08:55:14;;;;;;;5.22;2.60;;;13.30;86.10;;;;;;5071757;28;20025;-85
2021/11/13 08:57:43;;;;;;;6.18;3.25;;;13.30;86.00;;;;;;5066938;28;20519;-82
2021/11/13 09:00:11;;;;;;;7.63;3.05;;;13.30;86.00;;;;;;5052849;28;20033;-75
2021/11/13 09:02:37;;;;;;;5.65;2.70;;;13.30;86.00;;;;;;5062623;28;20048;-75
2021/11/13 09:05:04;;;;;;;4.65;2.60;;;13.30;86.00;;;;;;5068284;28;20148;-75
2021/11/13 09:07:30;;;;;;;4.75;2.75;;;13.30;85.90;;;;;;5065901;28;20059;-75
2021/11/13 09:09:56;;;;;;;4.97;2.65;;;13.40;85.80;;;;;;5066190;28;20040;-75
2021/11/13 09:12:26;;;;;;;9.80;3.38;;;13.50;85.80;;;;;;5071784;28;20048;-76
2021/11/13 09:14:57;;;;;;;6.05;2.40;;;13.70;85.50;;;;;;5070208;28;20032;-77
2021/11/13 09:17:23;;;;;;;6.45;2.13;;;13.90;84.90;;;;;;5060794;28;20027;-77
2021/11/13 09:19:49;;;;;;;5.95;4.05;;;14.20;84.80;;;;;;5065566;28;20066;-76
2021/11/13 09:22:16;;;;;;;5.35;2.10;;;14.80;83.80;;;;;;5067501;28;20025;-77
2021/11/13 09:24:41;;;;;;;3.75;2.20;;;15.00;83.00;;;;;;5071000;28;20032;-74
2021/11/13 09:27:07;;;;;;;3.65;2.20;;;15.00;82.80;;;;;;5064723;28;20025;-74
2021/11/13 09:29:33;;;;;;;4.25;2.17;;;14.90;82.50;;;;;;5070568;28;20035;-76
2021/11/13 09:31:58;;;;;;;4.25;2.10;;;14.80;82.70;;;;;;5069079;28;20039;-75
2021/11/13 09:34:24;;;;;;;3.50;2.13;;;14.70;83.00;;;;;;5069932;28;20462;-75
2021/11/13 09:36:50;;;;;;;3.65;2.05;;;14.70;82.90;;;;;;5070120;28;20617;-75
2021/11/13 09:39:17;;;;;;;4.38;2.30;;;14.60;83.30;;;;;;5069848;28;20103;-76
2021/11/13 09:41:44;;;;;;;6.03;2.30;;;14.70;83.40;;;;;;5070935;28;20491;-76
2021/11/13 09:44:11;;;;;;;6.03;2.38;;;14.70;83.40;;;;;;5066275;28;20036;-76
2021/11/13 09:46:37;;;;;;;6.65;2.28;;;14.80;83.40;;;;;;5069903;28;20491;-76
2021/11/13 09:49:03;;;;;;;3.92;2.25;;;14.70;83.60;;;;;;5069587;28;20065;-76
2021/11/13 09:51:32;;;;;;;3.50;1.75;;;14.80;83.50;;;;;;5059780;28;20033;-76
2021/11/13 09:53:58;;;;;;;4.18;1.98;;;14.80;83.50;;;;;;5070387;28;20023;-76
2021/11/13 09:56:25;;;;;;;3.08;1.75;;;14.90;83.30;;;;;;5069010;28;20021;-76
2021/11/13 09:58:50;;;;;;;4.72;1.63;;;15.00;83.20;;;;;;5064790;28;20033;-77
2021/11/13 10:01:17;;;;;;;4.82;2.50;;;15.10;82.90;;;;;;5056590;28;20078;-77
2021/11/13 10:03:43;;;;;;;4.43;1.50;;;15.20;82.50;;;;;;5056860;28;20399;-75
2021/11/13 10:06:14;;;;;;;3.50;1.92;;;15.20;82.50;;;;;;5055791;28;20028;-75
2021/11/13 10:08:42;;;;;;;4.40;2.00;;;15.20;82.30;;;;;;5056460;28;20033;-75
2021/11/13 10:11:12;;;;;;;8.07;2.33;;;15.30;82.60;;;;;;5057359;28;20021;-78
2021/11/13 10:13:40;;;;;;;;;;;15.30;82.40;;;;;;5049649;28;20098;-78
2021/11/13 10:16:16;;;;;;;5.13;1.83;;;15.50;81.80;;;;;;5053336;28;20498;-80
2021/11/13 10:18:46;;;;;;;4.65;1.70;;;15.70;81.80;;;;;;5041350;28;20029;-83
2021/11/13 10:21:19;;;;;;;4.00;1.63;;;15.80;81.40;;;;;;5045626;28;20106;-78
2021/11/13 10:23:48;;;;;;;4.30;1.50;;;15.70;81.60;;;;;;5047956;28;20049;-79
2021/11/13 10:26:20;;;;;;;5.00;1.98;;;15.70;81.30;;;;;;5051306;28;20039;-80
2021/11/13 10:28:48;;;;;;;5.03;2.30;;;15.70;81.50;;;;;;5048390;28;20042;-86
2021/11/13 10:31:18;;;;;;;3.80;1.50;;;15.70;81.30;;;;;;5057123;28;20187;-81
2021/11/13 10:33:45;;;;;;;2.97;1.38;;;15.90;80.90;;;;;;5048521;28;20034;-84
2021/11/13 10:36:11;;;;;;;4.95;1.42;;;15.90;80.50;;;;;;5045281;28;20033;-81
2021/11/13 10:38:39;;;;;;;4.22;1.63;;;15.80;80.50;;;;;;5047062;28;20029;-85
2021/11/13 10:41:12;;;;;;;2.67;1.23;;;15.70;80.40;;;;;;5065630;28;20049;-88
2021/11/13 10:43:46;;;;;;;1.45;0.88;;;15.50;80.50;;;;;;5046512;28;20017;-91
2021/11/13 10:46:49;;;;;;;2.08;1.33;;;15.20;81.00;;;;;;5046638;28;20484;-84
2021/11/13 10:49:15;;;;;;;3.42;1.10;;;15.20;82.00;;;;;;5009571;28;20077;-85
2021/11/13 10:51:55;;;;;;;2.97;1.10;;;15.10;81.90;;;;;;5038951;28;20036;-88
2021/11/13 10:54:22;;;;;;;4.55;0.98;;;15.00;82.10;;;;;;5047630;28;20124;-87
2021/11/13 10:56:56;;;;;;;3.40;1.08;;;14.90;82.50;;;;;;5051232;28;20120;-84
2021/11/13 10:59:35;;;;;;;4.60;1.20;;;14.90;82.70;;;;;;5046161;28;20025;-81
2021/11/13 11:02:22;;;;;;;3.50;0.90;;;14.90;82.20;;;;;;5054997;28;20104;-84
2021/11/13 11:04:49;;;;;;;2.17;1.15;;;14.90;82.90;;;;;;5052786;28;20090;-84
2021/11/13 11:07:16;;;;;;;2.80;1.10;;;14.90;82.70;;;;;;5056703;28;20024;-83
2021/11/13 11:09:56;;;;;;;2.92;1.33;;;14.90;83.40;;;;;;5052010;28;20036;-87
2021/11/13 11:12:26;;;;;;;;;;;14.90;83.30;;;;;;5047540;28;20047;-86
2021/11/13 11:14:53;;;;;;;4.95;2.25;;;15.10;83.30;;;;;;5043702;28;19916;-84
2021/11/13 11:17:23;;;;;;;1.77;1.45;;;15.20;83.20;;;;;;5050446;28;20055;-83
2021/11/13 11:19:51;;;;;;;3.80;2.05;;;15.20;82.90;;;;;;5047026;28;20040;-83
2021/11/13 11:22:24;;;;;;;3.25;1.38;;;15.30;82.60;;;;;;5046633;28;20063;-81
2021/11/13 11:24:54;;;;;;;2.05;1.15;;;15.50;81.90;;;;;;5048107;28;20056;-78
2021/11/13 11:27:35;;;;;;;6.65;1.48;;;15.60;81.60;;;;;;5049944;28;20052;-84
2021/11/13 11:30:13;;;;;;;4.32;1.00;;;15.80;81.40;;;;;;5044433;28;20030;-85
2021/11/13 11:32:44;;;;;;;3.60;1.00;;;15.90;80.10;;;;;;5049002;28;20559;-78
2021/11/13 11:35:18;;;;;;;2.05;1.10;;;15.80;79.90;;;;;;5051850;28;20029;-83
2021/11/13 11:37:48;;;;;;;3.97;1.17;;;15.90;80.80;;;;;;5050348;28;20154;-76
2021/11/13 11:40:19;;;;;;;4.35;1.00;;;16.10;80.60;;;;;;5050882;28;20040;-77
2021/11/13 11:42:48;;;;;;;3.60;1.05;;;16.20;80.10;;;;;;5048598;28;20427;-78
2021/11/13 11:45:18;;;;;;;5.03;1.42;;;16.10;80.30;;;;;;5051813;28;20025;-77
2021/11/13 11:47:45;;;;;;;5.00;1.95;;;16.20;80.20;;;;;;5050231;28;20720;-80
2021/11/13 11:50:13;;;;;;;3.47;1.10;;;16.10;79.10;;;;;;5050281;28;20124;-83
2021/11/13 11:52:43;;;;;;;4.88;1.60;;;16.00;79.20;;;;;;5048510;28;20025;-89
2021/11/13 11:55:10;;;;;;;7.07;1.38;;;16.10;79.10;;;;;;5047391;28;20040;-79
2021/11/13 11:57:39;;;;;;;4.68;1.45;;;16.20;79.70;;;;;;5047829;28;20029;-90
2021/11/13 12:00:11;;;;;;;6.97;2.28;;;16.30;78.80;;;;;;5047975;28;20028;-85
2021/11/13 12:02:42;;;;;;;4.60;1.55;;;16.50;78.20;;;;;;5046014;28;20487;-80
2021/11/13 12:05:12;;;;;;;4.28;1.23;;;16.80;77.90;;;;;;5049646;28;20024;-91
2021/11/13 12:07:40;;;;;;;4.60;1.00;;;16.70;77.40;;;;;;5055720;28;20030;-86
2021/11/13 12:10:10;;;;;;;3.53;0.93;;;16.50;78.10;;;;;;5049344;28;20223;-84
2021/11/13 12:12:40;;;;;;;;;;;16.20;78.50;;;;;;5044428;28;20031;-80
2021/11/13 12:15:18;;;;;;;5.20;1.15;;;16.00;78.50;;;;;;5053302;28;19965;-84
2021/11/13 12:17:45;;;;;;;8.65;0.90;;;15.80;78.90;;;;;;5049446;28;20036;-78
2021/11/13 12:20:12;;;;;;;4.55;0.90;;;15.70;78.50;;;;;;5043635;28;20034;-79
2021/11/13 12:22:42;;;;;;;4.30;1.00;;;15.50;79.10;;;;;;5054640;28;20017;-80
2021/11/13 12:25:20;;;;;;;4.65;1.13;;;15.40;79.80;;;;;;5050234;28;20549;-77
2021/11/13 12:28:19;;;;;;;6.88;1.40;;;15.50;79.50;;;;;;5052279;28;20021;-78
2021/11/13 12:30:45;;;;;;;3.63;1.17;;;15.50;79.20;;;;;;5049054;28;20487;-75
2021/11/13 12:33:33;;;;;;;3.92;0.75;;;15.70;79.60;;;;;;5039880;28;20462;-76
2021/11/13 12:36:07;;;;;;;2.55;1.33;;;15.80;78.80;;;;;;5043332;28;20039;-79
2021/11/13 12:38:44;;;;;;;3.72;1.20;;;16.00;78.40;;;;;;5055125;28;20028;-80
2021/11/13 12:41:11;;;;;;;4.32;1.02;;;16.30;77.90;;;;;;5062600;28;20025;-77
2021/11/13 12:44:13;;;;;;;5.70;1.35;;;16.30;77.30;;;;;;5050356;28;20475;-76
2021/11/13 12:46:58;;;;;;;4.03;1.02;;;16.40;77.10;;;;;;5046749;28;20475;-75
2021/11/13 12:49:30;;;;;;;3.08;1.00;;;16.70;76.90;;;;;;5049127;28;20114;-74
2021/11/13 12:51:56;;;;;;;2.17;0.90;;;16.80;75.80;;;;;;5046037;28;20151;-75